sensor_id;sensor_type;location;lat;lon;timestamp;temperature;humidity
12504;DHT22;6316;48.118;-1.690;2023-02-28T00:00:12;2.60;99.90
12504;DHT22;6316;48.118;-1.690;2023-02-28T00:02:42;2.60;99.90
12504;DHT22;6316;48.118;-1.690;2023-02-28T00:05:10;2.60;99.90
12504;DHT22;6316;48.118;-1.690;2023-02-28T00:07:36;2.60;99.90
12504;DHT22;6316;48.118;-1.690;2023-02-28T00:10:02;2.50;99.90
12504;DHT22;6316;48.118;-1.690;2023-02-28T00:12:28;2.50;99.90
12504;DHT22;6316;48.118;-1.690;2023-02-28T00:14:54;2.50;99.90
12504;DHT22;6316;48.118;-1.690;2023-02-28T00:17:20;2.50;99.90
12504;DHT22;6316;48.118;-1.690;2023-02-28T00:19:48;2.50;99.90
12504;DHT22;6316;48.118;-1.690;2023-02-28T00:22:15;2.50;99.90
12504;DHT22;6316;48.118;-1.690;2023-02-28T00:24:40;2.50;99.90
12504;DHT22;6316;48.118;-1.690;2023-02-28T00:27:06;2.40;99.90
12504;DHT22;6316;48.118;-1.690;2023-02-28T00:29:32;2.40;99.90
12504;DHT22;6316;48.118;-1.690;2023-02-28T00:31:57;2.40;99.90
12504;DHT22;6316;48.118;-1.690;2023-02-28T00:34:23;2.40;99.90
12504;DHT22;6316;48.118;-1.690;2023-02-28T00:36:49;2.40;99.90
12504;DHT22;6316;48.118;-1.690;2023-02-28T00:39:15;2.40;99.90
12504;DHT22;6316;48.118;-1.690;2023-02-28T00:41:41;2.30;99.90
12504;DHT22;6316;48.118;-1.690;2023-02-28T00:44:07;2.30;99.90
12504;DHT22;6316;48.118;-1.690;2023-02-28T00:46:33;2.30;99.90
12504;DHT22;6316;48.118;-1.690;2023-02-28T00:48:58;2.30;99.90
12504;DHT22;6316;48.118;-1.690;2023-02-28T00:51:24;2.30;99.90
12504;DHT22;6316;48.118;-1.690;2023-02-28T00:53:49;2.30;99.90
12504;DHT22;6316;48.118;-1.690;2023-02-28T00:56:15;2.30;99.90
12504;DHT22;6316;48.118;-1.690;2023-02-28T00:58:41;2.30;99.90
12504;DHT22;6316;48.118;-1.690;2023-02-28T01:01:06;2.30;99.90
12504;DHT22;6316;48.118;-1.690;2023-02-28T01:03:32;2.30;99.90
12504;DHT22;6316;48.118;-1.690;2023-02-28T01:05:58;2.20;99.90
12504;DHT22;6316;48.118;-1.690;2023-02-28T01:08:24;2.20;99.90
12504;DHT22;6316;48.118;-1.690;2023-02-28T01:10:51;2.20;99.90
12504;DHT22;6316;48.118;-1.690;2023-02-28T01:13:17;2.20;99.90
12504;DHT22;6316;48.118;-1.690;2023-02-28T01:15:50;2.20;99.90
12504;DHT22;6316;48.118;-1.690;2023-02-28T01:18:16;2.20;99.90
12504;DHT22;6316;48.118;-1.690;2023-02-28T01:20:42;2.10;99.90
12504;DHT22;6316;48.118;-1.690;2023-02-28T01:23:08;2.10;99.90
12504;DHT22;6316;48.118;-1.690;2023-02-28T01:25:35;2.10;99.90
12504;DHT22;6316;48.118;-1.690;2023-02-28T01:28:01;2.10;99.90
12504;DHT22;6316;48.118;-1.690;2023-02-28T01:30:27;2.10;99.90
12504;DHT22;6316;48.118;-1.690;2023-02-28T01:32:52;2.10;99.90
12504;DHT22;6316;48.118;-1.690;2023-02-28T01:35:19;2.10;99.90
12504;DHT22;6316;48.118;-1.690;2023-02-28T01:37:45;2.00;99.90
12504;DHT22;6316;48.118;-1.690;2023-02-28T01:40:12;2.00;99.90
12504;DHT22;6316;48.118;-1.690;2023-02-28T01:42:38;2.00;99.90
12504;DHT22;6316;48.118;-1.690;2023-02-28T01:45:26;2.00;99.90
12504;DHT22;6316;48.118;-1.690;2023-02-28T01:48:02;2.00;99.90
12504;DHT22;6316;48.118;-1.690;2023-02-28T01:50:33;2.00;99.90
12504;DHT22;6316;48.118;-1.690;2023-02-28T01:53:02;1.90;99.90
12504;DHT22;6316;48.118;-1.690;2023-02-28T01:55:30;1.90;99.90
12504;DHT22;6316;48.118;-1.690;2023-02-28T01:57:59;1.90;99.90
12504;DHT22;6316;48.118;-1.690;2023-02-28T02:00:26;1.90;99.90
12504;DHT22;6316;48.118;-1.690;2023-02-28T02:02:57;1.90;99.90
12504;DHT22;6316;48.118;-1.690;2023-02-28T02:05:27;1.90;99.90
12504;DHT22;6316;48.118;-1.690;2023-02-28T02:08:08;1.90;99.90
12504;DHT22;6316;48.118;-1.690;2023-02-28T02:10:39;1.90;99.90
12504;DHT22;6316;48.118;-1.690;2023-02-28T02:15:47;1.90;99.90
12504;DHT22;6316;48.118;-1.690;2023-02-28T02:18:25;1.90;99.90
12504;DHT22;6316;48.118;-1.690;2023-02-28T02:24:13;1.80;99.90
12504;DHT22;6316;48.118;-1.690;2023-02-28T02:33:08;1.80;99.90
12504;DHT22;6316;48.118;-1.690;2023-02-28T02:38:56;1.70;99.90
12504;DHT22;6316;48.118;-1.690;2023-02-28T02:41:34;1.70;99.90
12504;DHT22;6316;48.118;-1.690;2023-02-28T02:46:49;1.70;99.90
12504;DHT22;6316;48.118;-1.690;2023-02-28T02:49:21;1.70;99.90
12504;DHT22;6316;48.118;-1.690;2023-02-28T02:51:49;1.80;99.90
12504;DHT22;6316;48.118;-1.690;2023-02-28T02:54:18;1.60;99.90
12504;DHT22;6316;48.118;-1.690;2023-02-28T02:56:47;1.60;99.90
12504;DHT22;6316;48.118;-1.690;2023-02-28T02:59:16;1.60;99.90
12504;DHT22;6316;48.118;-1.690;2023-02-28T03:01:50;1.60;99.90
12504;DHT22;6316;48.118;-1.690;2023-02-28T03:04:20;1.60;99.90
12504;DHT22;6316;48.118;-1.690;2023-02-28T03:06:46;1.60;99.90
12504;DHT22;6316;48.118;-1.690;2023-02-28T03:09:12;1.70;99.90
12504;DHT22;6316;48.118;-1.690;2023-02-28T03:11:38;1.50;99.90
12504;DHT22;6316;48.118;-1.690;2023-02-28T03:16:36;1.50;99.90
12504;DHT22;6316;48.118;-1.690;2023-02-28T03:27:06;1.50;99.90
12504;DHT22;6316;48.118;-1.690;2023-02-28T03:29:33;1.40;99.90
12504;DHT22;6316;48.118;-1.690;2023-02-28T03:32:23;1.40;99.90
12504;DHT22;6316;48.118;-1.690;2023-02-28T03:35:07;1.40;99.90
12504;DHT22;6316;48.118;-1.690;2023-02-28T03:37:35;1.40;99.90
12504;DHT22;6316;48.118;-1.690;2023-02-28T03:40:10;1.40;99.90
12504;DHT22;6316;48.118;-1.690;2023-02-28T03:42:41;1.40;99.90
12504;DHT22;6316;48.118;-1.690;2023-02-28T03:45:18;1.40;99.90
12504;DHT22;6316;48.118;-1.690;2023-02-28T03:47:54;1.40;99.90
12504;DHT22;6316;48.118;-1.690;2023-02-28T03:55:33;1.30;99.90
12504;DHT22;6316;48.118;-1.690;2023-02-28T03:58:04;1.30;99.90
12504;DHT22;6316;48.118;-1.690;2023-02-28T04:00:36;1.30;99.90
12504;DHT22;6316;48.118;-1.690;2023-02-28T04:03:04;1.30;99.90
12504;DHT22;6316;48.118;-1.690;2023-02-28T04:05:30;1.30;99.90
12504;DHT22;6316;48.118;-1.690;2023-02-28T04:08:06;1.30;99.90
12504;DHT22;6316;48.118;-1.690;2023-02-28T04:10:32;1.30;99.90
12504;DHT22;6316;48.118;-1.690;2023-02-28T04:12:58;1.30;99.90
12504;DHT22;6316;48.118;-1.690;2023-02-28T04:15:24;1.30;99.90
12504;DHT22;6316;48.118;-1.690;2023-02-28T04:17:50;1.20;99.90
12504;DHT22;6316;48.118;-1.690;2023-02-28T04:20:16;1.30;99.90
12504;DHT22;6316;48.118;-1.690;2023-02-28T04:22:41;1.20;99.90
12504;DHT22;6316;48.118;-1.690;2023-02-28T04:25:08;1.20;99.90
12504;DHT22;6316;48.118;-1.690;2023-02-28T04:27:33;1.20;99.90
12504;DHT22;6316;48.118;-1.690;2023-02-28T04:29:59;1.30;99.90
12504;DHT22;6316;48.118;-1.690;2023-02-28T04:32:25;1.20;99.90
12504;DHT22;6316;48.118;-1.690;2023-02-28T04:34:51;1.10;99.90
12504;DHT22;6316;48.118;-1.690;2023-02-28T04:37:16;1.10;99.90
12504;DHT22;6316;48.118;-1.690;2023-02-28T04:39:42;1.10;99.90
12504;DHT22;6316;48.118;-1.690;2023-02-28T04:42:08;1.20;99.90
12504;DHT22;6316;48.118;-1.690;2023-02-28T04:44:34;1.10;99.90
12504;DHT22;6316;48.118;-1.690;2023-02-28T04:47:00;1.00;99.90
12504;DHT22;6316;48.118;-1.690;2023-02-28T04:49:25;1.00;99.90
12504;DHT22;6316;48.118;-1.690;2023-02-28T04:51:51;1.20;99.90
12504;DHT22;6316;48.118;-1.690;2023-02-28T04:54:18;1.00;99.90
12504;DHT22;6316;48.118;-1.690;2023-02-28T04:56:44;1.00;99.90
12504;DHT22;6316;48.118;-1.690;2023-02-28T04:59:09;1.10;99.90
12504;DHT22;6316;48.118;-1.690;2023-02-28T05:01:35;1.00;99.90
12504;DHT22;6316;48.118;-1.690;2023-02-28T05:04:03;1.10;99.90
12504;DHT22;6316;48.118;-1.690;2023-02-28T05:06:31;0.90;99.90
12504;DHT22;6316;48.118;-1.690;2023-02-28T05:08:57;0.90;99.90
12504;DHT22;6316;48.118;-1.690;2023-02-28T05:11:31;1.00;99.90
12504;DHT22;6316;48.118;-1.690;2023-02-28T05:14:01;0.90;99.90
12504;DHT22;6316;48.118;-1.690;2023-02-28T05:16:27;0.90;99.90
12504;DHT22;6316;48.118;-1.690;2023-02-28T05:18:53;0.80;99.90
12504;DHT22;6316;48.118;-1.690;2023-02-28T05:21:52;0.90;99.90
12504;DHT22;6316;48.118;-1.690;2023-02-28T05:24:18;0.80;99.90
12504;DHT22;6316;48.118;-1.690;2023-02-28T05:26:54;0.80;99.90
12504;DHT22;6316;48.118;-1.690;2023-02-28T05:29:20;0.70;99.90
12504;DHT22;6316;48.118;-1.690;2023-02-28T05:31:46;0.80;99.90
12504;DHT22;6316;48.118;-1.690;2023-02-28T05:34:12;0.80;99.90
12504;DHT22;6316;48.118;-1.690;2023-02-28T05:36:38;0.80;99.90
12504;DHT22;6316;48.118;-1.690;2023-02-28T05:39:06;0.80;99.90
12504;DHT22;6316;48.118;-1.690;2023-02-28T05:41:33;0.70;99.90
12504;DHT22;6316;48.118;-1.690;2023-02-28T05:43:59;0.70;99.90
12504;DHT22;6316;48.118;-1.690;2023-02-28T05:46:25;0.70;99.90
12504;DHT22;6316;48.118;-1.690;2023-02-28T05:48:51;0.70;99.90
12504;DHT22;6316;48.118;-1.690;2023-02-28T05:51:17;0.70;99.90
12504;DHT22;6316;48.118;-1.690;2023-02-28T05:53:43;0.60;99.90
12504;DHT22;6316;48.118;-1.690;2023-02-28T05:56:09;0.70;99.90
12504;DHT22;6316;48.118;-1.690;2023-02-28T05:58:34;0.70;99.90
12504;DHT22;6316;48.118;-1.690;2023-02-28T06:01:19;0.70;99.90
12504;DHT22;6316;48.118;-1.690;2023-02-28T06:03:45;0.70;99.90
12504;DHT22;6316;48.118;-1.690;2023-02-28T06:06:11;0.70;99.90
12504;DHT22;6316;48.118;-1.690;2023-02-28T06:08:37;0.60;99.90
12504;DHT22;6316;48.118;-1.690;2023-02-28T06:11:03;0.60;99.90
12504;DHT22;6316;48.118;-1.690;2023-02-28T06:13:29;0.60;99.90
12504;DHT22;6316;48.118;-1.690;2023-02-28T06:15:55;0.60;99.90
12504;DHT22;6316;48.118;-1.690;2023-02-28T06:18:20;0.60;99.90
12504;DHT22;6316;48.118;-1.690;2023-02-28T06:20:55;0.60;99.90
12504;DHT22;6316;48.118;-1.690;2023-02-28T06:23:21;0.60;99.90
12504;DHT22;6316;48.118;-1.690;2023-02-28T06:25:47;0.60;99.90
12504;DHT22;6316;48.118;-1.690;2023-02-28T06:28:15;0.60;99.90
12504;DHT22;6316;48.118;-1.690;2023-02-28T06:30:40;0.60;99.90
12504;DHT22;6316;48.118;-1.690;2023-02-28T06:33:06;0.60;99.90
12504;DHT22;6316;48.118;-1.690;2023-02-28T06:35:32;0.60;99.90
12504;DHT22;6316;48.118;-1.690;2023-02-28T06:37:57;0.60;99.90
12504;DHT22;6316;48.118;-1.690;2023-02-28T06:40:23;0.60;99.90
12504;DHT22;6316;48.118;-1.690;2023-02-28T06:42:49;0.60;99.90
12504;DHT22;6316;48.118;-1.690;2023-02-28T06:45:14;0.60;99.90
12504;DHT22;6316;48.118;-1.690;2023-02-28T06:47:41;0.50;99.90
12504;DHT22;6316;48.118;-1.690;2023-02-28T06:50:09;0.50;99.90
12504;DHT22;6316;48.118;-1.690;2023-02-28T06:52:35;0.50;99.90
12504;DHT22;6316;48.118;-1.690;2023-02-28T06:55:06;0.50;99.90
12504;DHT22;6316;48.118;-1.690;2023-02-28T06:57:32;0.50;99.90
12504;DHT22;6316;48.118;-1.690;2023-02-28T07:00:00;0.60;99.90
12504;DHT22;6316;48.118;-1.690;2023-02-28T07:02:27;0.50;99.90
12504;DHT22;6316;48.118;-1.690;2023-02-28T07:04:52;0.50;99.90
12504;DHT22;6316;48.118;-1.690;2023-02-28T07:07:18;0.60;99.90
12504;DHT22;6316;48.118;-1.690;2023-02-28T07:09:44;0.50;99.90
12504;DHT22;6316;48.118;-1.690;2023-02-28T07:12:09;0.50;99.90
12504;DHT22;6316;48.118;-1.690;2023-02-28T07:14:36;0.60;99.90
12504;DHT22;6316;48.118;-1.690;2023-02-28T07:17:02;0.60;99.90
12504;DHT22;6316;48.118;-1.690;2023-02-28T07:19:28;0.80;99.90
12504;DHT22;6316;48.118;-1.690;2023-02-28T07:21:54;1.20;99.90
12504;DHT22;6316;48.118;-1.690;2023-02-28T07:24:20;1.80;99.90
12504;DHT22;6316;48.118;-1.690;2023-02-28T07:26:45;2.50;99.90
12504;DHT22;6316;48.118;-1.690;2023-02-28T07:29:11;3.20;99.90
12504;DHT22;6316;48.118;-1.690;2023-02-28T07:31:37;3.80;99.90
12504;DHT22;6316;48.118;-1.690;2023-02-28T07:34:02;4.40;99.90
12504;DHT22;6316;48.118;-1.690;2023-02-28T07:36:28;4.90;99.90
12504;DHT22;6316;48.118;-1.690;2023-02-28T07:38:54;5.40;99.90
12504;DHT22;6316;48.118;-1.690;2023-02-28T07:41:21;5.80;99.90
12504;DHT22;6316;48.118;-1.690;2023-02-28T07:43:47;6.20;99.90
12504;DHT22;6316;48.118;-1.690;2023-02-28T07:46:15;6.40;99.90
12504;DHT22;6316;48.118;-1.690;2023-02-28T07:48:42;6.70;99.90
12504;DHT22;6316;48.118;-1.690;2023-02-28T07:51:07;6.90;99.90
12504;DHT22;6316;48.118;-1.690;2023-02-28T07:53:33;7.20;99.90
12504;DHT22;6316;48.118;-1.690;2023-02-28T07:56:00;7.30;99.90
12504;DHT22;6316;48.118;-1.690;2023-02-28T07:58:27;7.40;99.90
12504;DHT22;6316;48.118;-1.690;2023-02-28T08:00:54;7.40;99.90
12504;DHT22;6316;48.118;-1.690;2023-02-28T08:03:21;7.30;99.90
12504;DHT22;6316;48.118;-1.690;2023-02-28T08:05:47;7.20;99.90
12504;DHT22;6316;48.118;-1.690;2023-02-28T08:08:14;7.00;99.90
12504;DHT22;6316;48.118;-1.690;2023-02-28T08:10:40;6.70;99.90
12504;DHT22;6316;48.118;-1.690;2023-02-28T08:13:05;6.50;99.90
12504;DHT22;6316;48.118;-1.690;2023-02-28T08:15:31;6.20;99.90
12504;DHT22;6316;48.118;-1.690;2023-02-28T08:17:57;6.00;99.90
12504;DHT22;6316;48.118;-1.690;2023-02-28T08:20:24;5.70;99.90
12504;DHT22;6316;48.118;-1.690;2023-02-28T08:22:50;5.40;99.90
12504;DHT22;6316;48.118;-1.690;2023-02-28T08:25:16;5.20;99.90
12504;DHT22;6316;48.118;-1.690;2023-02-28T08:27:42;5.00;99.90
12504;DHT22;6316;48.118;-1.690;2023-02-28T08:30:10;4.80;99.90
12504;DHT22;6316;48.118;-1.690;2023-02-28T08:32:36;4.50;99.90
12504;DHT22;6316;48.118;-1.690;2023-02-28T08:35:01;4.30;99.90
12504;DHT22;6316;48.118;-1.690;2023-02-28T08:37:28;4.10;99.90
12504;DHT22;6316;48.118;-1.690;2023-02-28T08:39:54;3.90;99.90
12504;DHT22;6316;48.118;-1.690;2023-02-28T08:42:19;3.80;99.90
12504;DHT22;6316;48.118;-1.690;2023-02-28T08:44:45;3.60;99.90
12504;DHT22;6316;48.118;-1.690;2023-02-28T08:47:11;3.50;99.90
12504;DHT22;6316;48.118;-1.690;2023-02-28T08:49:37;3.50;99.90
12504;DHT22;6316;48.118;-1.690;2023-02-28T08:52:03;3.40;99.90
12504;DHT22;6316;48.118;-1.690;2023-02-28T08:54:29;3.40;99.90
12504;DHT22;6316;48.118;-1.690;2023-02-28T08:56:56;3.30;99.90
12504;DHT22;6316;48.118;-1.690;2023-02-28T08:59:22;3.30;99.90
12504;DHT22;6316;48.118;-1.690;2023-02-28T09:01:48;3.30;99.90
12504;DHT22;6316;48.118;-1.690;2023-02-28T09:04:14;3.30;99.90
12504;DHT22;6316;48.118;-1.690;2023-02-28T09:06:39;3.30;99.90
12504;DHT22;6316;48.118;-1.690;2023-02-28T09:09:06;3.30;99.90
12504;DHT22;6316;48.118;-1.690;2023-02-28T09:11:33;3.30;99.90
12504;DHT22;6316;48.118;-1.690;2023-02-28T09:13:59;3.20;99.90
12504;DHT22;6316;48.118;-1.690;2023-02-28T09:16:26;3.30;99.90
12504;DHT22;6316;48.118;-1.690;2023-02-28T09:18:52;3.30;99.90
12504;DHT22;6316;48.118;-1.690;2023-02-28T09:21:19;3.30;99.90
12504;DHT22;6316;48.118;-1.690;2023-02-28T09:23:46;3.30;99.90
12504;DHT22;6316;48.118;-1.690;2023-02-28T09:26:20;3.40;99.90
12504;DHT22;6316;48.118;-1.690;2023-02-28T09:28:47;3.40;99.90
12504;DHT22;6316;48.118;-1.690;2023-02-28T09:31:19;3.50;99.90
12504;DHT22;6316;48.118;-1.690;2023-02-28T09:33:52;3.50;99.90
12504;DHT22;6316;48.118;-1.690;2023-02-28T09:36:18;3.60;99.90
12504;DHT22;6316;48.118;-1.690;2023-02-28T09:38:44;3.60;99.90
12504;DHT22;6316;48.118;-1.690;2023-02-28T09:41:25;3.60;99.90
12504;DHT22;6316;48.118;-1.690;2023-02-28T09:43:56;3.70;99.90
12504;DHT22;6316;48.118;-1.690;2023-02-28T09:46:38;3.70;99.90
12504;DHT22;6316;48.118;-1.690;2023-02-28T09:49:40;3.70;99.90
12504;DHT22;6316;48.118;-1.690;2023-02-28T09:52:17;3.80;99.90
12504;DHT22;6316;48.118;-1.690;2023-02-28T09:54:45;3.80;99.90
12504;DHT22;6316;48.118;-1.690;2023-02-28T10:00:30;4.00;99.90
12504;DHT22;6316;48.118;-1.690;2023-02-28T10:02:54;4.00;99.90
12504;DHT22;6316;48.118;-1.690;2023-02-28T10:05:28;4.10;99.90
12504;DHT22;6316;48.118;-1.690;2023-02-28T10:08:05;4.10;99.90
12504;DHT22;6316;48.118;-1.690;2023-02-28T10:11:16;4.20;99.90
12504;DHT22;6316;48.118;-1.690;2023-02-28T10:16:34;4.40;99.90
12504;DHT22;6316;48.118;-1.690;2023-02-28T10:21:43;4.50;99.90
12504;DHT22;6316;48.118;-1.690;2023-02-28T10:24:35;4.50;99.90
12504;DHT22;6316;48.118;-1.690;2023-02-28T10:27:15;4.60;99.90
12504;DHT22;6316;48.118;-1.690;2023-02-28T10:29:46;4.70;99.90
12504;DHT22;6316;48.118;-1.690;2023-02-28T10:32:20;4.70;99.90
12504;DHT22;6316;48.118;-1.690;2023-02-28T10:35:19;4.80;99.90
12504;DHT22;6316;48.118;-1.690;2023-02-28T10:37:59;4.80;99.90
12504;DHT22;6316;48.118;-1.690;2023-02-28T10:40:33;4.90;99.90
12504;DHT22;6316;48.118;-1.690;2023-02-28T10:43:21;4.90;99.90
12504;DHT22;6316;48.118;-1.690;2023-02-28T10:51:13;5.10;99.90
12504;DHT22;6316;48.118;-1.690;2023-02-28T10:53:47;5.10;99.90
12504;DHT22;6316;48.118;-1.690;2023-02-28T10:56:24;5.20;99.90
12504;DHT22;6316;48.118;-1.690;2023-02-28T11:01:54;5.30;99.90
12504;DHT22;6316;48.118;-1.690;2023-02-28T11:07:19;5.40;99.90
12504;DHT22;6316;48.118;-1.690;2023-02-28T11:09:48;5.40;99.90
12504;DHT22;6316;48.118;-1.690;2023-02-28T11:12:28;5.50;99.90
12504;DHT22;6316;48.118;-1.690;2023-02-28T11:14:58;5.60;99.90
12504;DHT22;6316;48.118;-1.690;2023-02-28T11:17:31;5.60;99.90
12504;DHT22;6316;48.118;-1.690;2023-02-28T11:20:10;5.70;99.90
12504;DHT22;6316;48.118;-1.690;2023-02-28T11:22:44;5.80;99.90
12504;DHT22;6316;48.118;-1.690;2023-02-28T11:25:20;5.80;99.90
12504;DHT22;6316;48.118;-1.690;2023-02-28T11:27:51;5.80;99.90
12504;DHT22;6316;48.118;-1.690;2023-02-28T11:30:45;5.90;99.90
12504;DHT22;6316;48.118;-1.690;2023-02-28T11:35:49;6.00;99.90
12504;DHT22;6316;48.118;-1.690;2023-02-28T11:38:15;6.00;99.90
12504;DHT22;6316;48.118;-1.690;2023-02-28T11:46:16;6.10;99.90
12504;DHT22;6316;48.118;-1.690;2023-02-28T11:49:20;6.20;99.90
12504;DHT22;6316;48.118;-1.690;2023-02-28T11:52:02;6.30;99.90
12504;DHT22;6316;48.118;-1.690;2023-02-28T11:54:53;6.40;99.90
12504;DHT22;6316;48.118;-1.690;2023-02-28T12:05:45;6.50;99.90
12504;DHT22;6316;48.118;-1.690;2023-02-28T12:11:27;6.60;99.90
12504;DHT22;6316;48.118;-1.690;2023-02-28T12:27:36;6.90;99.90
12504;DHT22;6316;48.118;-1.690;2023-02-28T12:30:25;7.00;99.90
12504;DHT22;6316;48.118;-1.690;2023-02-28T12:33:08;7.00;99.90
12504;DHT22;6316;48.118;-1.690;2023-02-28T12:35:47;7.00;99.90
12504;DHT22;6316;48.118;-1.690;2023-02-28T12:38:28;7.10;99.90
12504;DHT22;6316;48.118;-1.690;2023-02-28T12:41:09;7.10;99.90
12504;DHT22;6316;48.118;-1.690;2023-02-28T12:43:43;7.20;99.90
12504;DHT22;6316;48.118;-1.690;2023-02-28T12:46:17;7.20;99.90
12504;DHT22;6316;48.118;-1.690;2023-02-28T12:48:48;7.30;99.90
12504;DHT22;6316;48.118;-1.690;2023-02-28T12:51:17;7.40;99.90
12504;DHT22;6316;48.118;-1.690;2023-02-28T12:59:45;7.90;99.90
12504;DHT22;6316;48.118;-1.690;2023-02-28T13:05:28;8.00;99.90
12504;DHT22;6316;48.118;-1.690;2023-02-28T13:08:24;8.00;99.90
12504;DHT22;6316;48.118;-1.690;2023-02-28T13:10:53;8.10;99.90
12504;DHT22;6316;48.118;-1.690;2023-02-28T13:13:27;8.10;99.90
12504;DHT22;6316;48.118;-1.690;2023-02-28T13:18:43;8.10;99.90
12504;DHT22;6316;48.118;-1.690;2023-02-28T13:21:28;8.30;99.90
12504;DHT22;6316;48.118;-1.690;2023-02-28T13:24:00;8.40;99.90
12504;DHT22;6316;48.118;-1.690;2023-02-28T13:39:52;8.90;99.90
12504;DHT22;6316;48.118;-1.690;2023-02-28T13:47:33;8.80;99.90
12504;DHT22;6316;48.118;-1.690;2023-02-28T13:58:41;8.40;99.90
12504;DHT22;6316;48.118;-1.690;2023-02-28T14:06:51;8.20;99.90
12504;DHT22;6316;48.118;-1.690;2023-02-28T14:09:24;8.10;99.90
12504;DHT22;6316;48.118;-1.690;2023-02-28T14:11:51;8.10;99.90
12504;DHT22;6316;48.118;-1.690;2023-02-28T14:17:06;7.90;99.90
12504;DHT22;6316;48.118;-1.690;2023-02-28T14:19:37;7.80;99.90
12504;DHT22;6316;48.118;-1.690;2023-02-28T14:25:21;7.70;99.90
12504;DHT22;6316;48.118;-1.690;2023-02-28T14:35:38;7.70;99.90
12504;DHT22;6316;48.118;-1.690;2023-02-28T14:38:07;7.70;99.90
12504;DHT22;6316;48.118;-1.690;2023-02-28T14:40:40;7.60;99.90
12504;DHT22;6316;48.118;-1.690;2023-02-28T14:43:18;7.60;99.90
12504;DHT22;6316;48.118;-1.690;2023-02-28T14:45:50;7.50;99.90
12504;DHT22;6316;48.118;-1.690;2023-02-28T14:48:16;7.40;99.90
12504;DHT22;6316;48.118;-1.690;2023-02-28T14:50:49;7.30;99.90
12504;DHT22;6316;48.118;-1.690;2023-02-28T14:53:19;7.20;99.90
12504;DHT22;6316;48.118;-1.690;2023-02-28T14:55:47;7.20;99.90
12504;DHT22;6316;48.118;-1.690;2023-02-28T15:00:49;7.00;99.90
12504;DHT22;6316;48.118;-1.690;2023-02-28T15:03:45;7.00;99.90
12504;DHT22;6316;48.118;-1.690;2023-02-28T15:06:14;7.00;99.90
12504;DHT22;6316;48.118;-1.690;2023-02-28T15:08:42;7.00;99.90
12504;DHT22;6316;48.118;-1.690;2023-02-28T15:11:18;7.10;99.90
12504;DHT22;6316;48.118;-1.690;2023-02-28T15:13:53;7.10;99.90
12504;DHT22;6316;48.118;-1.690;2023-02-28T15:16:29;7.20;99.90
12504;DHT22;6316;48.118;-1.690;2023-02-28T15:19:13;7.20;99.90
12504;DHT22;6316;48.118;-1.690;2023-02-28T15:21:43;7.20;99.90
12504;DHT22;6316;48.118;-1.690;2023-02-28T15:26:45;7.10;99.90
12504;DHT22;6316;48.118;-1.690;2023-02-28T15:29:21;7.10;99.90
12504;DHT22;6316;48.118;-1.690;2023-02-28T15:31:56;7.10;99.90
12504;DHT22;6316;48.118;-1.690;2023-02-28T15:36:52;6.90;99.90
12504;DHT22;6316;48.118;-1.690;2023-02-28T15:39:26;6.90;99.90
12504;DHT22;6316;48.118;-1.690;2023-02-28T15:42:19;6.70;99.90
12504;DHT22;6316;48.118;-1.690;2023-02-28T15:44:45;6.70;99.90
12504;DHT22;6316;48.118;-1.690;2023-02-28T15:47:27;6.60;99.90
12504;DHT22;6316;48.118;-1.690;2023-02-28T15:49:58;6.50;99.90
12504;DHT22;6316;48.118;-1.690;2023-02-28T15:52:34;6.50;99.90
12504;DHT22;6316;48.118;-1.690;2023-02-28T15:55:20;6.40;99.90
12504;DHT22;6316;48.118;-1.690;2023-02-28T15:57:50;6.30;99.90
12504;DHT22;6316;48.118;-1.690;2023-02-28T16:00:20;6.30;99.90
12504;DHT22;6316;48.118;-1.690;2023-02-28T16:02:46;6.20;99.90
12504;DHT22;6316;48.118;-1.690;2023-02-28T16:07:42;6.10;99.90
12504;DHT22;6316;48.118;-1.690;2023-02-28T16:10:11;6.10;99.90
12504;DHT22;6316;48.118;-1.690;2023-02-28T16:12:38;6.10;99.90
12504;DHT22;6316;48.118;-1.690;2023-02-28T16:17:41;6.00;99.90
12504;DHT22;6316;48.118;-1.690;2023-02-28T16:20:14;6.00;99.90
12504;DHT22;6316;48.118;-1.690;2023-02-28T16:22:41;6.10;99.90
12504;DHT22;6316;48.118;-1.690;2023-02-28T16:25:15;6.10;99.90
12504;DHT22;6316;48.118;-1.690;2023-02-28T16:27:42;6.10;99.90
12504;DHT22;6316;48.118;-1.690;2023-02-28T16:30:20;6.10;99.90
12504;DHT22;6316;48.118;-1.690;2023-02-28T16:32:47;6.10;99.90
12504;DHT22;6316;48.118;-1.690;2023-02-28T16:35:13;6.10;99.90
12504;DHT22;6316;48.118;-1.690;2023-02-28T16:37:39;6.10;99.90
12504;DHT22;6316;48.118;-1.690;2023-02-28T16:40:05;6.10;99.90
12504;DHT22;6316;48.118;-1.690;2023-02-28T16:42:31;6.10;99.90
12504;DHT22;6316;48.118;-1.690;2023-02-28T16:44:57;6.00;99.90
12504;DHT22;6316;48.118;-1.690;2023-02-28T16:47:24;6.10;99.90
12504;DHT22;6316;48.118;-1.690;2023-02-28T16:49:52;6.00;99.90
12504;DHT22;6316;48.118;-1.690;2023-02-28T16:52:17;6.00;99.90
12504;DHT22;6316;48.118;-1.690;2023-02-28T16:54:43;6.00;99.90
12504;DHT22;6316;48.118;-1.690;2023-02-28T16:57:19;6.00;99.90
12504;DHT22;6316;48.118;-1.690;2023-02-28T16:59:46;6.10;99.90
12504;DHT22;6316;48.118;-1.690;2023-02-28T17:02:17;6.10;99.90
12504;DHT22;6316;48.118;-1.690;2023-02-28T17:04:44;6.10;99.90
12504;DHT22;6316;48.118;-1.690;2023-02-28T17:07:15;6.10;99.90
12504;DHT22;6316;48.118;-1.690;2023-02-28T17:09:42;6.10;99.90
12504;DHT22;6316;48.118;-1.690;2023-02-28T17:12:08;6.10;99.90
12504;DHT22;6316;48.118;-1.690;2023-02-28T17:14:34;6.10;99.90
12504;DHT22;6316;48.118;-1.690;2023-02-28T17:17:00;6.10;99.90
12504;DHT22;6316;48.118;-1.690;2023-02-28T17:19:26;6.10;99.90
12504;DHT22;6316;48.118;-1.690;2023-02-28T17:21:53;6.10;99.90
12504;DHT22;6316;48.118;-1.690;2023-02-28T17:24:19;6.20;99.90
12504;DHT22;6316;48.118;-1.690;2023-02-28T17:26:45;6.20;99.90
12504;DHT22;6316;48.118;-1.690;2023-02-28T17:29:17;6.10;99.90
12504;DHT22;6316;48.118;-1.690;2023-02-28T17:31:43;6.20;99.90
12504;DHT22;6316;48.118;-1.690;2023-02-28T17:34:09;6.10;99.90
12504;DHT22;6316;48.118;-1.690;2023-02-28T17:36:35;6.10;99.90
12504;DHT22;6316;48.118;-1.690;2023-02-28T17:39:03;6.10;99.90
12504;DHT22;6316;48.118;-1.690;2023-02-28T17:41:29;6.10;99.90
12504;DHT22;6316;48.118;-1.690;2023-02-28T17:43:56;6.10;99.90
12504;DHT22;6316;48.118;-1.690;2023-02-28T17:46:23;6.20;99.90
12504;DHT22;6316;48.118;-1.690;2023-02-28T17:48:51;6.10;99.90
12504;DHT22;6316;48.118;-1.690;2023-02-28T17:51:19;6.10;99.90
12504;DHT22;6316;48.118;-1.690;2023-02-28T17:53:44;6.10;99.90
12504;DHT22;6316;48.118;-1.690;2023-02-28T17:56:19;6.10;99.90
12504;DHT22;6316;48.118;-1.690;2023-02-28T17:58:46;6.10;99.90
12504;DHT22;6316;48.118;-1.690;2023-02-28T18:01:11;6.10;99.90
12504;DHT22;6316;48.118;-1.690;2023-02-28T18:03:38;6.10;99.90
12504;DHT22;6316;48.118;-1.690;2023-02-28T18:06:04;6.10;99.90
12504;DHT22;6316;48.118;-1.690;2023-02-28T18:08:30;6.10;99.90
12504;DHT22;6316;48.118;-1.690;2023-02-28T18:10:58;6.00;99.90
12504;DHT22;6316;48.118;-1.690;2023-02-28T18:13:24;6.10;99.90
12504;DHT22;6316;48.118;-1.690;2023-02-28T18:15:50;6.10;99.90
12504;DHT22;6316;48.118;-1.690;2023-02-28T18:18:16;6.10;99.90
12504;DHT22;6316;48.118;-1.690;2023-02-28T18:20:42;6.10;99.90
12504;DHT22;6316;48.118;-1.690;2023-02-28T18:23:07;6.10;99.90
12504;DHT22;6316;48.118;-1.690;2023-02-28T18:25:33;6.10;99.90
12504;DHT22;6316;48.118;-1.690;2023-02-28T18:27:59;6.10;99.90
12504;DHT22;6316;48.118;-1.690;2023-02-28T18:30:28;6.10;99.90
12504;DHT22;6316;48.118;-1.690;2023-02-28T18:33:00;6.10;99.90
12504;DHT22;6316;48.118;-1.690;2023-02-28T18:35:27;6.10;99.90
12504;DHT22;6316;48.118;-1.690;2023-02-28T18:38:10;6.10;99.90